Time;durP1;ratioP1;P1;durP2;ratioP2;P2;SDS_P1;SDS_P2;PMS_P1;PMS_P2;Temp;Humidity;BMP_temperature;BMP_pressure;BME280_temperature;BME280_humidity;BME280_pressure;Samples;Min_cycle;Max_cycle;Signal;HPM_P1;HPM_P2
2023/06/04 00:02:03;;;;;;;12.48;3.60;;;;;;;;;;6314961;22;20010;-95
2023/06/04 00:05:00;;;;;;;;;;;;;;;;;;;;;
2023/06/04 00:08:10;;;;;;;11.25;4.13;;;;;;;;;;6338086;22;20032;-94
2023/06/04 00:10:58;;;;;;;7.53;3.15;;;;;;;;;;6314317;22;20064;-95
2023/06/04 00:13:45;;;;;;;8.85;3.58;;;;;;;;;;6315086;22;20018;-95
2023/06/04 00:16:42;;;;;;;8.07;3.50;;;;;;;;;;6315458;22;20452;-95
2023/06/04 00:19:34;;;;;;;8.77;3.22;;;;;;;;;;6315505;22;20014;-94
2023/06/04 00:22:24;;;;;;;6.35;2.72;;;;;;;;;;6294329;22;20026;-94
2023/06/04 00:25:31;;;;;;;;;;;;;;;;;;;;;
2023/06/04 00:28:21;;;;;;;7.43;2.92;;;;;;;;;;6317218;22;20464;-95
2023/06/04 00:31:18;;;;;;;7.50;3.28;;;;;;;;;;6295587;22;20124;-94
2023/06/04 00:34:12;;;;;;;11.07;3.83;;;;;;;;;;6339877;22;20017;-96
2023/06/04 00:36:57;;;;;;;9.40;3.55;;;;;;;;;;6316389;22;20095;-94
2023/06/04 00:39:47;;;;;;;6.25;3.00;;;;;;;;;;6316148;22;20030;-94
2023/06/04 00:42:45;;;;;;;8.57;3.42;;;;;;;;;;6316477;22;20029;-95
2023/06/04 00:45:32;;;;;;;5.75;2.95;;;;;;;;;;6339727;22;20060;-94
2023/06/04 00:48:30;;;;;;;6.38;3.17;;;;;;;;;;6294285;22;20017;-94
2023/06/04 00:51:20;;;;;;;6.97;3.17;;;;;;;;;;6339201;22;20456;-94
2023/06/04 00:54:13;;;;;;;9.15;3.33;;;;;;;;;;6339243;22;20018;-94
2023/06/04 00:57:08;;;;;;;8.75;3.33;;;;;;;;;;6315955;22;20013;-94
2023/06/04 00:59:55;;;;;;;7.72;3.97;;;;;;;;;;6315777;22;20041;-94
2023/06/04 01:02:40;;;;;;;8.32;4.15;;;;;;;;;;6316514;22;20064;-95
2023/06/04 01:06:00;;;;;;;5.50;3.72;;;;;;;;;;6316213;22;20014;-94
2023/06/04 01:09:06;;;;;;;7.53;4.00;;;;;;;;;;6288555;22;20062;-93
2023/06/04 01:11:57;;;;;;;7.45;3.97;;;;;;;;;;6316250;22;20428;-94
2023/06/04 01:14:44;;;;;;;11.05;3.88;;;;;;;;;;6316240;22;20084;-94
2023/06/04 01:17:45;;;;;;;8.75;4.38;;;;;;;;;;6315797;22;20452;-94
2023/06/04 01:20:33;;;;;;;11.70;3.72;;;;;;;;;;6316504;22;20014;-94
2023/06/04 01:23:42;;;;;;;8.30;3.60;;;;;;;;;;6315982;22;20106;-94
2023/06/04 01:26:37;;;;;;;15.30;6.32;;;;;;;;;;6275371;22;20371;-94
2023/06/04 01:29:23;;;;;;;14.68;4.65;;;;;;;;;;6316422;22;20043;-94
2023/06/04 01:32:12;;;;;;;8.20;4.15;;;;;;;;;;6338350;22;20888;-94
2023/06/04 01:35:10;;;;;;;11.65;4.07;;;;;;;;;;6294279;22;20018;-94
2023/06/04 01:37:57;;;;;;;10.73;4.75;;;;;;;;;;6338664;22;20028;-95
2023/06/04 01:40:44;;;;;;;10.75;5.28;;;;;;;;;;6294179;22;20014;-94
2023/06/04 01:43:30;;;;;;;6.95;4.13;;;;;;;;;;6315882;22;20040;-94
2023/06/04 01:46:23;;;;;;;8.68;4.32;;;;;;;;;;6316071;22;20010;-94
2023/06/04 01:49:08;;;;;;;13.68;3.85;;;;;;;;;;6294579;22;20037;-95
2023/06/04 01:51:56;;;;;;;7.15;3.97;;;;;;;;;;6338693;22;20014;-94
2023/06/04 01:54:52;;;;;;;6.80;3.65;;;;;;;;;;6294369;22;20018;-94
2023/06/04 01:57:39;;;;;;;13.20;4.20;;;;;;;;;;6339140;22;20010;-93
2023/06/04 02:00:24;;;;;;;10.85;4.43;;;;;;;;;;6315783;22;20036;-93
2023/06/04 02:03:17;;;;;;;11.90;4.47;;;;;;;;;;6338136;22;20055;-94
2023/06/04 02:06:12;;;;;;;;;;;;;;;;;;;;;
2023/06/04 02:08:57;;;;;;;11.00;4.40;;;;;;;;;;6337227;22;20068;-93
2023/06/04 02:11:42;;;;;;;9.18;5.07;;;;;;;;;;6314785;22;20092;-93
2023/06/04 02:14:49;;;;;;;;;;;;;;;;;;;;;
2023/06/04 02:17:45;;;;;;;8.45;4.30;;;;;;;;;;6338845;22;20060;-94
2023/06/04 02:20:34;;;;;;;9.20;4.38;;;;;;;;;;6315862;22;20009;-94
2023/06/04 02:23:20;;;;;;;11.77;4.45;;;;;;;;;;6315427;22;20017;-94
2023/06/04 02:26:28;;;;;;;10.25;4.70;;;;;;;;;;6337854;22;20337;-94
2023/06/04 02:29:13;;;;;;;10.52;4.90;;;;;;;;;;6312033;22;20014;-94
2023/06/04 02:32:03;;;;;;;9.15;4.43;;;;;;;;;;6336863;22;20505;-94
2023/06/04 02:34:48;;;;;;;9.00;4.65;;;;;;;;;;6338719;22;20014;-93
2023/06/04 02:37:46;;;;;;;;;;;;;;;;;;;;;
2023/06/04 02:40:58;;;;;;;13.45;5.00;;;;;;;;;;6318127;22;20022;-93
2023/06/04 02:43:49;;;;;;;10.70;4.65;;;;;;;;;;6338609;22;20034;-94
2023/06/04 02:46:36;;;;;;;12.23;5.07;;;;;;;;;;6315800;22;20445;-93
2023/06/04 02:49:26;;;;;;;9.32;4.55;;;;;;;;;;6293470;22;20452;-95
2023/06/04 02:52:13;;;;;;;9.27;4.75;;;;;;;;;;6314909;22;20100;-94
2023/06/04 02:58:45;;;;;;;11.02;5.57;;;;;;;;;;6313601;22;20148;-94
2023/06/04 03:01:29;;;;;;;8.70;4.90;;;;;;;;;;6340051;22;20102;-95
2023/06/04 03:04:17;;;;;;;9.20;5.35;;;;;;;;;;6328761;22;20021;-95
2023/06/04 03:07:05;;;;;;;10.93;5.18;;;;;;;;;;6337090;22;20129;-94
2023/06/04 03:10:00;;;;;;;;;;;;;;;;;;;;;
2023/06/04 03:12:54;;;;;;;11.75;6.47;;;;;;;;;;6362397;22;20017;-95
2023/06/04 03:15:52;;;;;;;;;;;;;;;;;;;;;
2023/06/04 03:18:58;;;;;;;11.55;5.38;;;;;;;;;;6362504;22;20009;-94
2023/06/04 03:21:54;;;;;;;;;;;;;;;;;;;;;
2023/06/04 03:24:52;;;;;;;;;;;;;;;;;;;;;
2023/06/04 03:27:48;;;;;;;10.88;5.55;;;;;;;;;;6340544;22;20468;-94
2023/06/04 03:30:54;;;;;;;14.48;6.50;;;;;;;;;;6338951;22;20014;-94
2023/06/04 03:34:02;;;;;;;10.13;5.45;;;;;;;;;;6315645;22;20340;-94
2023/06/04 03:37:23;;;;;;;;;;;;;;;;;;;;;
2023/06/04 03:40:27;;;;;;;13.32;5.65;;;;;;;;;;6338166;22;20018;-94
2023/06/04 03:43:18;;;;;;;12.55;5.95;;;;;;;;;;6297126;22;20022;-94
2023/06/04 03:46:36;;;;;;;;;;;;;;;;;;;;;
2023/06/04 03:49:44;;;;;;;15.82;6.35;;;;;;;;;;6338098;22;20014;-94
2023/06/04 03:52:56;;;;;;;13.43;5.30;;;;;;;;;;6314785;22;20014;-94
2023/06/04 03:55:44;;;;;;;14.38;5.93;;;;;;;;;;6314674;22;20009;-94
2023/06/04 03:58:40;;;;;;;12.52;6.45;;;;;;;;;;6314795;22;20018;-94
2023/06/04 04:01:28;;;;;;;14.07;6.15;;;;;;;;;;6337607;22;20253;-94
2023/06/04 04:04:21;;;;;;;14.55;5.80;;;;;;;;;;6337659;22;20452;-94
2023/06/04 04:07:06;;;;;;;13.52;6.38;;;;;;;;;;6295432;22;20049;-95
2023/06/04 04:10:01;;;;;;;11.38;6.15;;;;;;;;;;6316850;22;20044;-93
2023/06/04 04:12:58;;;;;;;14.10;6.93;;;;;;;;;;6339912;22;20029;-95
2023/06/04 04:15:43;;;;;;;21.45;7.72;;;;;;;;;;6316903;22;20033;-94
2023/06/04 04:18:57;;;;;;;14.50;7.57;;;;;;;;;;6294624;22;20482;-94
2023/06/04 04:21:41;;;;;;;16.88;7.50;;;;;;;;;;6321242;22;20045;-95
2023/06/04 04:24:35;;;;;;;15.02;7.45;;;;;;;;;;6316360;22;20084;-95
2023/06/04 04:27:44;;;;;;;;;;;;;;;;;;;;;
2023/06/04 04:30:43;;;;;;;;;;;;;;;;;;;;;
2023/06/04 04:34:08;;;;;;;16.88;7.95;;;;;;;;;;6339813;22;20017;-95
2023/06/04 04:37:03;;;;;;;;;;;9.80;99.90;;;;;;6317940;22;20014;-95
2023/06/04 04:40:10;;;;;;;;;;;;;;;;;;;;;
2023/06/04 04:46:17;;;;;;;18.83;9.15;;;;;;;;;;6322536;22;20076;-95
2023/06/04 04:49:08;;;;;;;20.38;10.02;;;;;;;;;;6316615;22;20009;-95
2023/06/04 04:51:58;;;;;;;23.70;9.88;;;;;;;;;;6317141;22;20056;-95
2023/06/04 04:54:46;;;;;;;18.70;9.45;;;;;;;;;;6316963;22;20059;-95
2023/06/04 04:57:33;;;;;;;26.38;9.98;;;;;;;;;;6317408;22;20086;-94
2023/06/04 05:03:27;;;;;;;23.52;9.70;;;;;;;;;;6314081;22;20350;-95
2023/06/04 05:06:18;;;;;;;17.92;8.82;;;;;;;;;;6317767;22;20009;-95
2023/06/04 05:09:12;;;;;;;21.05;9.35;;;;;;;;;;6317782;22;20014;-94
2023/06/04 05:11:57;;;;;;;21.35;10.23;;;;;;;;;;6317524;22;20041;-94
2023/06/04 05:14:47;;;;;;;21.52;8.70;;;;;;;;;;6317363;22;20025;-94
2023/06/04 05:17:35;;;;;;;18.20;7.90;;;;;;;;;;6316010;22;20045;-95
2023/06/04 05:20:28;;;;;;;21.17;8.27;;;;;;;;;;6316432;22;20018;-94
2023/06/04 05:23:49;;;;;;;;;;;;;;;;;;;;;
2023/06/04 05:26:54;;;;;;;17.83;7.35;;;;;;;;;;6342067;22;20029;-96
2023/06/04 05:29:57;;;;;;;20.27;7.55;;;;;;;;;;6341428;22;20018;-95
2023/06/04 05:32:53;;;;;;;14.27;7.20;;;;;;;;;;6316641;22;20014;-93
2023/06/04 05:35:56;;;;;;;13.88;6.93;;;;;;;;;;6297027;22;20195;-95
2023/06/04 05:38:43;;;;;;;12.43;6.93;;;;;;;;;;6296673;22;20021;-93
2023/06/04 05:41:31;;;;;;;12.15;7.03;;;;;;;;;;6315615;22;20566;-94
2023/06/04 05:44:18;;;;;;;13.65;5.43;;;;;;;;;;6315505;22;20644;-93
2023/06/04 05:47:03;;;;;;;11.43;6.20;;;;;;;;;;6315685;22;20049;-93
2023/06/04 05:49:55;;;;;;;14.00;5.93;;;;;;;;;;6315735;22;20051;-95
2023/06/04 05:55:46;;;;;;;15.18;5.80;;;;;;;;;;6334425;22;20026;-94
2023/06/04 05:58:38;;;;;;;13.32;5.30;;;;;;;;;;6315000;22;20022;-95
2023/06/04 06:01:29;;;;;;;12.48;5.15;;;;;;;;;;6293347;22;20021;-93
2023/06/04 06:04:16;;;;;;;11.70;5.22;;;;;;;;;;6294289;22;20502;-94
2023/06/04 06:07:04;;;;;;;10.15;4.72;;;;;;;;;;6317440;22;20017;-93
2023/06/04 06:09:52;;;;;;;14.25;4.57;;;;;;;;;;6294773;22;20049;-94
2023/06/04 06:12:52;;;;;;;12.05;3.63;;;;;;;;;;6338996;22;20121;-94
2023/06/04 06:15:54;;;;;;;9.55;3.72;;;;;;;;;;6317208;22;20459;-96
2023/06/04 06:18:48;;;;;;;14.68;4.70;;;;;;;;;;6339636;22;20383;-95
2023/06/04 06:21:45;;;;;;;10.25;3.42;;;;;;;;;;6318378;22;20010;-95
2023/06/04 06:25:00;;;;;;;16.92;3.58;;;;;;;;;;6297016;22;20471;-95
2023/06/04 06:27:44;;;;;;;;;;;14.60;99.90;;;;;;6320352;22;20045;-94
2023/06/04 06:30:39;;;;;;;8.95;3.00;;;;;;;;;;6314687;22;19910;-93
2023/06/04 06:33:44;;;;;;;10.77;3.70;;;;;;;;;;6316851;22;20345;-94
2023/06/04 06:36:38;;;;;;;7.32;3.08;;;;;;;;;;6338363;22;20017;-95
2023/06/04 06:39:46;;;;;;;9.52;3.13;;;;;;;;;;6316041;22;20356;-94
2023/06/04 06:42:51;;;;;;;9.50;3.10;;;;;;;;;;6315659;22;20018;-96
2023/06/04 06:45:44;;;;;;;11.05;3.03;;;;;;;;;;6314975;22;20140;-95
2023/06/04 06:48:44;;;;;;;;;;;;;;;;;;;;;
2023/06/04 06:51:32;;;;;;;8.38;2.60;;;;;;;;;;6339023;22;20013;-95
2023/06/04 06:54:21;;;;;;;8.98;2.80;;;;;;;;;;6339018;22;20014;-94
2023/06/04 06:57:24;;;;;;;10.10;2.90;;;;;;;;;;6316717;22;20017;-94
2023/06/04 07:00:18;;;;;;;10.27;3.03;;;;;;;;;;6339052;22;20017;-95
2023/06/04 07:03:12;;;;;;;;;;;15.70;99.90;;;;;;6317966;22;20017;-95
2023/06/04 07:06:16;;;;;;;11.85;2.50;;;;;;;;;;6295831;22;19913;-95
2023/06/04 07:09:08;;;;;;;9.95;2.65;;;;;;;;;;6315373;22;20088;-93
2023/06/04 07:12:15;;;;;;;;;;;;;;;;;;;;;
2023/06/04 07:15:18;;;;;;;11.30;3.30;;;;;;;;;;6338055;22;20021;-94
2023/06/04 07:18:03;;;;;;;5.70;2.25;;;;;;;;;;6314059;22;20021;-93
2023/06/04 07:21:00;;;;;;;;;;;;;;;;;;;;;
2023/06/04 07:23:49;;;;;;;6.97;2.03;;;;;;;;;;6336316;22;20043;-93
2023/06/04 07:26:36;;;;;;;9.20;2.80;;;;;;;;;;6313651;22;20014;-95
2023/06/04 07:29:21;;;;;;;7.80;2.50;;;;;;;;;;6338768;22;20013;-95
2023/06/04 07:32:11;;;;;;;8.90;3.38;;;;;;;;;;6314245;22;20064;-94
2023/06/04 07:34:56;;;;;;;9.48;2.30;;;;;;;;;;6315348;22;20018;-95
2023/06/04 07:37:48;;;;;;;7.32;2.53;;;;;;;;;;6315308;22;20063;-93
2023/06/04 07:40:33;;;;;;;9.60;3.78;;;;;;;;;;6337298;22;20332;-95
2023/06/04 07:43:20;;;;;;;12.45;2.88;;;;;;;;;;6294566;22;20072;-95
2023/06/04 07:46:05;;;;;;;7.53;2.38;;;;;;;;;;6316565;22;20013;-95
2023/06/04 07:48:55;;;;;;;13.30;3.20;;;;;;;;;;6315003;22;20010;-94
2023/06/04 07:51:45;;;;;;;7.60;2.33;;;;;;;;;;6317756;22;20018;-94
2023/06/04 07:54:34;;;;;;;6.65;2.05;;;;;;;;;;6313734;22;20014;-94
2023/06/04 07:57:19;;;;;;;9.73;2.45;;;;;;;;;;6338082;22;20045;-95
2023/06/04 08:00:12;;;;;;;5.47;1.70;;;;;;;;;;6317050;22;20063;-94
2023/06/04 08:02:56;;;;;;;7.88;2.55;;;;;;;;;;6315889;22;20464;-95
2023/06/04 08:05:53;;;;;;;8.00;2.30;;;;;;;;;;6315647;22;20010;-95
2023/06/04 08:08:49;;;;;;;4.18;1.45;;;;;;;;;;6338158;22;20094;-94
2023/06/04 08:11:34;;;;;;;5.22;2.03;;;;;;;;;;6315299;22;20025;-95
2023/06/04 08:14:22;;;;;;;7.88;2.28;;;;;;;;;;6338448;22;20353;-94
2023/06/04 08:17:18;;;;;;;7.22;1.80;;;;;;;;;;6337799;22;20010;-95
2023/06/04 08:20:06;;;;;;;5.25;1.80;;;;;;;;;;6316080;22;20041;-95
2023/06/04 08:22:50;;;;;;;4.38;1.50;;;;;;;;;;6314234;22;20068;-96
2023/06/04 08:25:37;;;;;;;8.32;1.45;;;;;;;;;;6315320;22;20009;-95
2023/06/04 08:28:25;;;;;;;6.00;1.70;;;;;;;;;;6315302;22;20017;-95
2023/06/04 08:31:10;;;;;;;5.15;1.80;;;;;;;;;;6314656;22;20064;-96
2023/06/04 08:34:05;;;;;;;5.35;1.58;;;;;;;;;;6337375;22;20037;-93
2023/06/04 08:36:52;;;;;;;4.55;1.55;;;;;;;;;;6312135;22;20025;-95
2023/06/04 08:39:47;;;;;;;4.32;1.90;;;;;;;;;;6315815;22;20451;-95
2023/06/04 08:42:35;;;;;;;4.90;1.60;;;;;;;;;;6315516;22;20341;-94
2023/06/04 08:45:23;;;;;;;5.88;1.77;;;;;;;;;;6315149;22;20014;-95
2023/06/04 08:48:13;;;;;;;4.18;1.35;;;;;;;;;;6314357;22;20091;-94
2023/06/04 08:51:00;;;;;;;4.55;1.58;;;;;;;;;;6337599;22;20013;-95
2023/06/04 08:53:49;;;;;;;3.80;1.38;;;;;;;;;;6316769;22;20033;-95
2023/06/04 08:56:35;;;;;;;3.42;1.55;;;;;;;;;;6339905;22;20010;-94
2023/06/04 08:59:22;;;;;;;3.75;1.33;;;;;;;;;;6317143;22;20437;-94
2023/06/04 09:02:10;;;;;;;6.63;1.50;;;;;;;;;;6341453;22;20034;-94
2023/06/04 09:05:10;;;;;;;3.20;1.65;;;;;;;;;;6339219;22;20059;-96
2023/06/04 09:07:59;;;;;;;2.97;1.35;;;;;;;;;;6339386;22;20067;-90
2023/06/04 09:10:49;;;;;;;5.55;1.80;;;;;;;;;;6336985;22;20035;-94
2023/06/04 09:13:42;;;;;;;6.78;1.40;;;;;;;;;;6337409;22;20037;-92
2023/06/04 09:16:27;;;;;;;3.53;1.55;;;;;;;;;;6337618;22;20060;-92
2023/06/04 09:19:11;;;;;;;6.30;1.50;;;;;;;;;;6336828;22;20324;-96
2023/06/04 09:22:01;;;;;;;3.42;1.75;;;;;;;;;;6336569;22;20049;-93
2023/06/04 09:24:52;;;;;;;2.85;1.65;;;;;;;;;;6314481;22;20017;-93
2023/06/04 09:27:40;;;;;;;5.65;1.55;;;;;;;;;;6338600;22;20009;-91
2023/06/04 09:30:25;;;;;;;5.00;1.75;;;;;;;;;;6316122;22;20014;-91
2023/06/04 09:33:11;;;;;;;4.70;2.13;;;;;;;;;;6337995;22;20160;-93
2023/06/04 09:35:59;;;;;;;5.13;1.30;;;;;;;;;;6315349;22;20017;-94
2023/06/04 09:38:45;;;;;;;4.85;1.40;;;;;;;;;;6336253;22;20025;-92
2023/06/04 09:41:30;;;;;;;4.28;1.63;;;;;;;;;;6323788;22;20017;-91
2023/06/04 09:44:15;;;;;;;3.30;1.50;;;;;;;;;;6310384;22;20053;-90
2023/06/04 09:47:00;;;;;;;5.95;1.50;;;;;;;;;;6315914;22;20018;-91
2023/06/04 09:49:52;;;;;;;2.83;1.30;;;;;;;;;;6359016;22;20006;-92
2023/06/04 09:52:39;;;;;;;4.40;1.50;;;;;;;;;;6359083;22;20021;-92
2023/06/04 09:55:25;;;;;;;6.18;1.70;;;;;;;;;;6346035;22;20456;-90
2023/06/04 09:58:12;;;;;;;4.82;1.42;;;;;;;;;;6337656;22;20060;-92
2023/06/04 10:00:59;;;;;;;4.43;1.83;;;;;;;;;;6337920;22;20021;-92
2023/06/04 10:03:48;;;;;;;4.45;1.40;;;;;;;;;;6293813;22;20022;-92
2023/06/04 10:06:36;;;;;;;3.13;1.42;;;;;;;;;;6338018;22;20010;-92
2023/06/04 10:09:25;;;;;;;4.22;1.40;;;;;;;;;;6338382;22;20053;-91
2023/06/04 10:12:10;;;;;;;4.90;1.50;;;;;;;;;;6338114;22;20021;-92
2023/06/04 10:15:08;;;;;;;3.03;1.30;;;;;;;;;;6315261;22;20036;-90
2023/06/04 10:17:54;;;;;;;5.60;1.45;;;;;;;;;;6318082;22;20021;-91
2023/06/04 10:20:39;;;;;;;3.60;1.52;;;;;;;;;;6338162;22;20041;-90
2023/06/04 10:23:24;;;;;;;4.05;1.70;;;;;;;;;;6338360;22;20381;-90
2023/06/04 10:26:12;;;;;;;4.57;1.73;;;;;;;;;;6314141;22;20009;-91
2023/06/04 10:28:58;;;;;;;4.70;1.60;;;;;;;;;;6314367;22;20435;-90
2023/06/04 10:31:44;;;;;;;3.72;1.60;;;;;;;;;;6314305;22;20064;-92
2023/06/04 10:34:29;;;;;;;3.45;1.35;;;;;;;;;;6313646;22;20032;-91
2023/06/04 10:37:40;;;;;;;3.75;1.40;;;;;;;;;;6313517;22;20498;-91
2023/06/04 10:40:32;;;;;;;4.30;1.27;;;;;;;;;;6336574;22;20132;-91
2023/06/04 10:43:17;;;;;;;4.85;1.50;;;;;;;;;;6314724;22;20048;-90
2023/06/04 10:46:12;;;;;;;5.25;1.60;;;;;;;;;;6314071;22;20018;-92
2023/06/04 10:48:57;;;;;;;4.15;1.80;;;;;;;;;;6338407;22;20021;-91
2023/06/04 10:51:44;;;;;;;4.93;1.63;;;;;;;;;;6315204;22;20479;-90
2023/06/04 10:54:31;;;;;;;4.22;1.48;;;;;;;;;;6338730;22;20463;-88
2023/06/04 10:57:35;;;;;;;3.50;1.75;;;;;;;;;;6314564;22;20061;-90
2023/06/04 11:00:21;;;;;;;3.65;1.52;;;;;;;;;;6337457;22;20061;-93
2023/06/04 11:03:07;;;;;;;3.75;1.50;;;;;;;;;;6313793;22;20021;-92
2023/06/04 11:05:51;;;;;;;2.95;1.30;;;;;;;;;;6337641;22;20056;-91
2023/06/04 11:08:40;;;;;;;7.20;1.38;;;;;;;;;;6314208;22;20341;-91
2023/06/04 11:11:24;;;;;;;5.82;2.45;;;;;;;;;;6313868;22;20018;-90
2023/06/04 11:14:12;;;;;;;3.45;1.20;;;;;;;;;;6336388;22;20022;-90
2023/06/04 11:16:57;;;;;;;4.47;1.58;;;;;;;;;;6337666;22;20344;-89
2023/06/04 11:19:42;;;;;;;3.90;1.60;;;;;;;;;;6292611;22;20064;-87
2023/06/04 11:22:26;;;;;;;3.78;1.20;;;;;;;;;;6313022;22;20069;-88
2023/06/04 11:25:11;;;;;;;5.45;1.38;;;;;;;;;;6291366;22;20345;-91
2023/06/04 11:27:56;;;;;;;3.88;1.60;;;;;;;;;;6313457;22;20033;-90
2023/06/04 11:30:41;;;;;;;3.47;1.40;;;;;;;;;;6314118;22;20017;-92
2023/06/04 11:33:26;;;;;;;7.18;1.50;;;;;;;;;;6336493;22;20075;-91
2023/06/04 11:36:10;;;;;;;7.00;1.70;;;;;;;;;;6313077;22;20474;-90
2023/06/04 11:38:59;;;;;;;4.53;1.65;;;;;;;;;;6336975;22;20025;-90
2023/06/04 11:41:43;;;;;;;3.70;1.30;;;;;;;;;;6336863;22;20040;-91
2023/06/04 11:44:29;;;;;;;5.63;1.80;;;;;;;;;;6291163;22;20014;-90
2023/06/04 11:47:15;;;;;;;3.17;1.38;;;;;;;;;;6336434;22;20087;-92
2023/06/04 11:49:59;;;;;;;3.78;1.20;;;;;;;;;;6337053;22;20060;-91
2023/06/04 11:52:44;;;;;;;3.90;1.35;;;;;;;;;;6336828;22;20033;-92
2023/06/04 11:55:29;;;;;;;4.10;1.70;;;;;;;;;;6336684;22;20528;-91
2023/06/04 11:58:13;;;;;;;4.78;1.50;;;;;;;;;;6312987;22;20060;-91
2023/06/04 12:00:58;;;;;;;4.38;1.70;;;;;;;;;;6337307;22;20075;-90
2023/06/04 12:03:43;;;;;;;3.65;1.65;;;;;;;;;;6313845;22;20093;-90
2023/06/04 12:06:27;;;;;;;2.75;1.10;;;;;;;;;;6337060;22;20046;-90
2023/06/04 12:09:20;;;;;;;4.28;1.45;;;;;;;;;;6336830;22;20328;-92
2023/06/04 12:12:05;;;;;;;6.38;1.95;;;;;;;;;;6336818;22;20018;-89
2023/06/04 12:14:57;;;;;;;5.70;1.50;;;;;;;;;;6313901;22;20017;-89
2023/06/04 12:17:51;;;;;;;3.22;1.23;;;;;;;;;;6313999;22;20036;-90
2023/06/04 12:20:36;;;;;;;4.72;1.30;;;;;;;;;;6313221;22;20063;-92
2023/06/04 12:23:21;;;;;;;5.53;1.42;;;;;;;;;;6336810;22;20086;-90
2023/06/04 12:26:06;;;;;;;4.60;1.50;;;;;;;;;;6315509;22;20092;-90
2023/06/04 12:29:14;;;;;;;4.80;1.30;;;23.90;58.30;;;;;;6294136;22;20029;-90
2023/06/04 12:32:08;;;;;;;7.68;1.55;;;;;;;;;;6315717;22;20111;-87
2023/06/04 12:34:53;;;;;;;3.38;1.60;;;;;;;;;;6339835;22;20017;-87
2023/06/04 12:37:39;;;;;;;3.97;1.67;;;;;;;;;;6316409;22;20018;-88
2023/06/04 12:40:24;;;;;;;3.70;1.50;;;;;;;;;;6294702;22;20085;-89
2023/06/04 12:43:08;;;;;;;5.10;1.50;;;;;;;;;;6316304;22;20079;-90
2023/06/04 12:45:53;;;;;;;4.03;1.60;;;;;;;;;;6316394;22;20487;-87
2023/06/04 12:48:37;;;;;;;5.10;1.65;;;;;;;;;;6315471;22;20567;-91
2023/06/04 12:51:22;;;;;;;4.72;1.40;;;;;;;;;;6337731;22;20071;-87
2023/06/04 12:54:06;;;;;;;5.32;1.50;;;;;;;;;;6338549;22;20025;-90
2023/06/04 12:56:51;;;;;;;5.93;1.70;;;;;;;;;;6339339;22;20022;-94
2023/06/04 12:59:35;;;;;;;4.05;1.50;;;;;;;;;;6339267;22;20137;-88
2023/06/04 13:02:20;;;;;;;5.35;1.25;;;;;;;;;;6338850;22;20044;-89
2023/06/04 13:05:05;;;;;;;4.15;1.70;;;;;;;;;;6340704;22;20010;-88
2023/06/04 13:07:50;;;;;;;3.53;1.40;;;;;;;;;;6319424;22;20063;-89
2023/06/04 13:10:35;;;;;;;3.33;1.42;;;;;;;;;;6343799;22;20022;-88
2023/06/04 13:13:20;;;;;;;3.17;1.60;;;;;;;;;;6316799;22;20068;-91
2023/06/04 13:16:05;;;;;;;4.68;1.73;;;;;;;;;;6314454;22;20013;-87
2023/06/04 13:18:49;;;;;;;4.07;1.50;;;;;;;;;;6315123;22;20018;-88
2023/06/04 13:21:35;;;;;;;4.43;1.42;;;;;;;;;;6337669;22;20341;-89
2023/06/04 13:24:20;;;;;;;3.20;1.58;;;;;;;;;;6315724;22;20073;-88
2023/06/04 13:27:04;;;;;;;3.85;1.70;;;;;;;;;;6314715;22;20478;-89
2023/06/04 13:29:49;;;;;;;4.60;1.42;;;;;;;;;;6338242;22;20033;-88
2023/06/04 13:32:33;;;;;;;3.10;1.38;;;;;;;;;;6315944;22;20346;-89
2023/06/04 13:35:18;;;;;;;5.55;1.80;;;;;;;;;;6338528;22;20017;-88
2023/06/04 13:38:05;;;;;;;5.15;1.70;;;;;;;;;;6314867;22;20017;-88
2023/06/04 13:40:50;;;;;;;3.03;1.52;;;;;;;;;;6338109;22;20052;-89
2023/06/04 13:43:35;;;;;;;3.88;1.13;;;;;;;;;;6314537;22;20072;-88
2023/06/04 13:46:19;;;;;;;7.75;1.52;;;;;;;;;;6338610;22;20014;-90
2023/06/04 13:49:05;;;;;;;4.13;1.92;;;;;;;;;;6315154;22;20013;-90
2023/06/04 13:51:49;;;;;;;6.25;1.38;;;;;;;;;;6337718;22;20325;-90
2023/06/04 13:54:34;;;;;;;5.28;1.40;;;;;;;;;;6315074;22;20443;-91
2023/06/04 13:57:18;;;;;;;4.25;1.27;;;;;;;;;;6338145;22;20014;-91
2023/06/04 14:00:04;;;;;;;3.53;1.23;;;;;;;;;;6338169;22;20013;-90
2023/06/04 14:02:49;;;;;;;5.28;1.63;;;;;;;;;;6314222;22;20017;-91
2023/06/04 14:05:33;;;;;;;4.32;1.30;;;;;;;;;;6314551;22;20026;-91
2023/06/04 14:08:18;;;;;;;6.20;1.60;;;;;;;;;;6339587;22;20014;-89
2023/06/04 14:11:02;;;;;;;3.55;1.38;;;;;;;;;;6315462;22;20057;-91
2023/06/04 14:13:47;;;;;;;5.63;2.22;;;;;;;;;;6339280;22;20336;-90
2023/06/04 14:16:32;;;;;;;6.18;1.50;;;;;;;;;;6338009;22;20021;-92
2023/06/04 14:19:20;;;;;;;4.10;1.50;;;;;;;;;;6294614;22;20389;-91
2023/06/04 14:22:12;;;;;;;4.70;1.50;;;;;;;;;;6339382;22;20444;-90
2023/06/04 14:25:01;;;;;;;3.60;1.60;;;;;;;;;;6322858;22;20045;-90
2023/06/04 14:27:45;;;;;;;3.58;1.50;;;;;;;;;;6324059;22;20033;-90
2023/06/04 14:30:30;;;;;;;4.95;1.38;;;;;;;;;;6338678;22;20056;-92
2023/06/04 14:33:14;;;;;;;3.17;1.45;;;;;;;;;;6343121;22;20026;-93
2023/06/04 14:35:59;;;;;;;4.70;1.58;;;;;;;;;;6338205;22;20018;-89
2023/06/04 14:38:44;;;;;;;4.15;1.50;;;;;;;;;;6292598;22;20383;-91
2023/06/04 14:41:30;;;;;;;8.52;1.80;;;;;;;;;;6339174;22;20060;-89
2023/06/04 14:44:14;;;;;;;5.40;1.90;;;;;;;;;;6315362;22;20072;-89
2023/06/04 14:46:59;;;;;;;5.68;1.65;;;;;;;;;;6314863;22;20098;-90
2023/06/04 14:49:44;;;;;;;4.43;1.55;;;;;;;;;;6337452;22;20052;-91
2023/06/04 14:52:28;;;;;;;6.70;1.60;;;;;;;;;;6338196;22;20133;-91
2023/06/04 14:55:13;;;;;;;11.23;3.00;;;;;;;;;;6293700;22;20072;-91
2023/06/04 14:57:58;;;;;;;7.10;1.50;;;;;;;;;;6292801;22;20072;-90
2023/06/04 15:00:42;;;;;;;3.95;1.58;;;;;;;;;;6314860;22;20359;-90
2023/06/04 15:03:27;;;;;;;4.70;2.03;;;;;;;;;;6315267;22;20094;-91
2023/06/04 15:06:12;;;;;;;3.90;1.48;;;;;;;;;;6315319;22;20019;-89
2023/06/04 15:08:56;;;;;;;5.45;1.90;;;;;;;;;;6314202;22;20452;-89
2023/06/04 15:11:42;;;;;;;3.67;1.50;;;;;;;;;;6314290;22;20030;-92
2023/06/04 15:14:32;;;;;;;4.20;1.40;;;;;;;;;;6303581;22;20102;-95
2023/06/04 15:17:17;;;;;;;4.90;1.67;;;;;;;;;;6314882;22;20048;-90
2023/06/04 15:20:02;;;;;;;4.38;1.63;;;;;;;;;;6337421;22;20022;-92
2023/06/04 15:22:47;;;;;;;6.43;1.63;;;;;;;;;;6312808;22;20068;-92
2023/06/04 15:25:34;;;;;;;5.40;1.50;;;;;;;;;;6313082;22;20017;-94
2023/06/04 15:28:19;;;;;;;4.70;1.60;;;;;;;;;;6314860;22;20087;-93
2023/06/04 15:31:04;;;;;;;4.03;1.27;;;;;;;;;;6313247;22;20068;-92
2023/06/04 15:33:48;;;;;;;4.85;2.05;;;;;;;;;;6312702;22;20060;-91
2023/06/04 15:36:34;;;;;;;4.70;1.58;;;;;;;;;;6295350;22;20017;-91
2023/06/04 15:39:18;;;;;;;4.85;1.38;;;;;;;;;;6292452;22;20044;-92
2023/06/04 15:42:03;;;;;;;6.55;1.50;;;;;;;;;;6313321;22;20141;-92
2023/06/04 15:44:48;;;;;;;4.07;1.35;;;;;;;;;;6313868;22;20472;-92
2023/06/04 15:47:34;;;;;;;6.10;1.80;;;;;;;;;;6337817;22;20183;-93
2023/06/04 15:50:19;;;;;;;4.38;1.90;;;;;;;;;;6337815;22;20018;-89
2023/06/04 15:53:04;;;;;;;4.05;1.83;;;;;;;;;;6314151;22;20066;-93
2023/06/04 15:55:50;;;;;;;5.25;1.40;;;;;;;;;;6314883;22;20063;-93
2023/06/04 15:58:34;;;;;;;5.05;1.50;;;;;;;;;;6314960;22;20018;-91
2023/06/04 16:01:19;;;;;;;4.13;1.42;;;;;;;;;;6341486;22;20337;-91
2023/06/04 16:04:09;;;;;;;4.70;1.52;;;;;;;;;;6341684;22;20057;-91
2023/06/04 16:06:54;;;;;;;3.75;1.95;;;;;;;;;;6328532;22;20064;-90
2023/06/04 16:09:39;;;;;;;5.65;1.77;;;;;;;;;;6329923;22;20094;-92
2023/06/04 16:12:23;;;;;;;4.43;1.60;;;;;;;;;;6354212;22;20022;-91
2023/06/04 16:15:08;;;;;;;4.22;1.63;;;;;;;;;;6328016;22;20013;-91
2023/06/04 16:17:53;;;;;;;4.80;1.67;;;;;;;;;;6327747;22;20398;-90
2023/06/04 16:20:38;;;;;;;3.67;1.40;;;;;;;;;;6327377;22;20025;-92
2023/06/04 16:23:25;;;;;;;9.35;2.17;;;;;;;;;;6332135;22;20089;-94
2023/06/04 16:26:16;;;;;;;3.85;1.60;;;;;;;;;;6356199;22;20056;-91
2023/06/04 16:29:03;;;;;;;5.40;2.05;;;;;;;;;;6318483;22;20332;-92
2023/06/04 16:31:50;;;;;;;8.80;2.00;;;;;;;;;;6317541;22;20392;-94
2023/06/04 16:34:42;;;;;;;4.68;1.90;;;;;;;;;;6341033;22;20042;-90
2023/06/04 16:37:32;;;;;;;6.47;1.55;;;;;;;;;;6341109;22;20014;-91
2023/06/04 16:40:20;;;;;;;4.57;2.10;;;;;;;;;;6317256;22;20052;-90
2023/06/04 16:43:06;;;;;;;5.78;2.05;;;;;;;;;;6293635;22;20076;-91
2023/06/04 16:45:51;;;;;;;5.32;1.95;;;;;;;;;;6338429;22;20017;-91
2023/06/04 16:48:35;;;;;;;7.40;1.77;;;;;;;;;;6315563;22;20014;-90
2023/06/04 16:51:22;;;;;;;5.30;1.70;;;;;;;;;;6336422;22;20037;-92
2023/06/04 16:54:07;;;;;;;4.78;1.98;;;;;;;;;;6312655;22;20348;-91
2023/06/04 16:56:52;;;;;;;4.97;1.98;;;;;;;;;;6313469;22;20018;-91
2023/06/04 16:59:37;;;;;;;6.82;1.80;;;;;;;;;;6314485;22;20393;-88
2023/06/04 17:02:22;;;;;;;5.55;2.00;;;;;;;;;;6332095;22;20021;-91
2023/06/04 17:05:06;;;;;;;6.90;2.17;;;;;;;;;;6333027;22;20033;-92
2023/06/04 17:07:52;;;;;;;4.30;1.92;;;;;;;;;;6289045;22;20018;-91
2023/06/04 17:10:36;;;;;;;5.70;1.80;;;;;;;;;;6333912;22;20017;-91
2023/06/04 17:13:21;;;;;;;11.43;2.80;;;;;;;;;;6333618;22;20029;-93
2023/06/04 17:16:08;;;;;;;6.78;2.00;;;;;;;;;;6311871;22;20357;-93
2023/06/04 17:18:53;;;;;;;6.20;2.13;;;;;;;;;;6312444;22;20329;-91
2023/06/04 17:22:02;;;;;;;7.05;2.25;;;;;;;;;;6338484;22;20014;-92
2023/06/04 17:24:49;;;;;;;7.60;1.73;;;;;;;;;;6294795;22;20025;-91
2023/06/04 17:27:37;;;;;;;5.55;2.03;;;;;;;;;;6314030;22;20013;-92